Time;durP1;ratioP1;P1;durP2;ratioP2;P2;SDS_P1;SDS_P2;PMS_P1;PMS_P2;Temp;Humidity;BMP_temperature;BMP_pressure;BME280_temperature;BME280_humidity;BME280_pressure;Samples;Min_cycle;Max_cycle;Signal;HPM_P1;HPM_P2
2022/07/12 00:02:05;;;;;;;6.32;4.15;;;;;;;17.78;77.35;102186.47;3596597;39;20039;-64
2022/07/12 00:04:30;;;;;;;4.65;3.70;;;;;;;17.78;77.14;102186.47;3597926;39;20063;-63
2022/07/12 00:06:56;;;;;;;4.00;3.60;;;;;;;17.75;76.62;102181.22;3597595;39;20051;-62
2022/07/12 00:09:21;;;;;;;6.20;3.80;;;;;;;17.69;77.04;102178.94;3597084;39;20063;-62
2022/07/12 00:11:47;;;;;;;5.28;4.35;;;;;;;17.61;77.77;102173.16;3596737;39;20062;-62
2022/07/12 00:14:13;;;;;;;5.10;4.60;;;;;;;17.55;78.24;102168.16;3588719;39;20051;-63
2022/07/12 00:16:39;;;;;;;4.80;4.25;;;;;;;17.48;78.54;102166.84;3597453;39;20060;-62
2022/07/12 00:19:05;;;;;;;4.90;4.50;;;;;;;17.35;78.86;102145.09;3600099;39;20051;-62
2022/07/12 00:21:31;;;;;;;5.88;5.05;;;;;;;17.37;79.40;102160.28;3599477;39;20454;-62
2022/07/12 00:23:56;;;;;;;5.60;4.68;;;;;;;17.33;80.07;102158.78;3599284;39;20055;-62
2022/07/12 00:26:22;;;;;;;9.30;4.85;;;;;;;17.31;80.33;102152.56;3598248;39;20056;-62
2022/07/12 00:28:48;;;;;;;7.55;5.70;;;;;;;17.28;80.03;102160.94;3599575;39;20067;-62
2022/07/12 00:31:13;;;;;;;6.53;5.43;;;;;;;17.29;80.16;102168.13;3598909;39;20070;-62
2022/07/12 00:33:39;;;;;;;7.00;4.80;;;;;;;17.29;80.73;102170.84;3599749;39;20063;-62
2022/07/12 00:36:05;;;;;;;5.00;4.50;;;;;;;17.30;80.79;102169.84;3599843;39;20055;-62
2022/07/12 00:38:31;;;;;;;5.15;4.68;;;;;;;17.24;79.92;102155.81;3598931;39;20059;-62
2022/07/12 00:40:57;;;;;;;4.78;4.35;;;;;;;17.22;80.21;102169.53;3597273;39;20287;-62
2022/07/12 00:43:22;;;;;;;5.45;4.75;;;;;;;17.19;79.92;102167.03;3587734;39;20060;-62
2022/07/12 00:45:48;;;;;;;5.55;4.82;;;;;;;17.14;80.49;102158.31;3596523;39;20055;-62
2022/07/12 00:48:17;;;;;;;8.68;4.40;;;;;;;16.71;80.12;102090.53;3598386;39;20058;-62
2022/07/12 00:50:45;;;;;;;4.97;4.32;;;;;;;17.15;79.89;102165.47;3597753;39;20051;-62
2022/07/12 00:53:13;;;;;;;6.20;4.60;;;;;;;17.12;79.31;102165.66;3597905;39;20095;-62
2022/07/12 00:55:39;;;;;;;4.68;4.00;;;;;;;17.13;79.76;102167.44;3597805;39;20077;-63
2022/07/12 00:58:05;;;;;;;4.20;3.50;;;;;;;17.12;79.40;102155.66;3598297;39;20090;-63
2022/07/12 01:00:31;;;;;;;4.30;3.75;;;;;;;17.09;78.97;102155.00;3590853;39;20059;-63
2022/07/12 01:03:02;;;;;;;4.68;4.28;;;;;;;17.06;79.41;102157.94;3598029;39;20293;-63
2022/07/12 01:05:29;;;;;;;5.75;4.40;;;;;;;17.00;79.61;102166.50;3598332;39;20063;-63
2022/07/12 01:07:56;;;;;;;5.10;4.38;;;;;;;17.01;79.42;102162.84;3601417;39;20059;-63
2022/07/12 01:10:23;;;;;;;4.05;3.70;;;;;;;16.94;79.49;102157.81;3596820;39;20059;-63
2022/07/12 01:12:50;;;;;;;4.05;3.53;;;;;;;16.96;79.66;102159.53;3598435;39;20051;-62
2022/07/12 01:15:16;;;;;;;4.10;3.70;;;;;;;16.92;80.15;102161.59;3599697;39;20051;-62
2022/07/12 01:17:44;;;;;;;4.30;3.60;;;;;;;16.89;79.99;102168.09;3598238;39;20410;-62
2022/07/12 01:20:11;;;;;;;4.03;3.28;;;;;;;16.87;79.28;102158.31;3598171;39;20128;-62
2022/07/12 01:22:51;;;;;;;4.20;3.38;;;;;;;16.85;78.95;102169.28;3597022;39;20044;-62
2022/07/12 01:25:17;;;;;;;3.65;3.30;;;;;;;16.82;79.71;102166.78;3597191;39;20049;-62
2022/07/12 01:27:42;;;;;;;4.05;3.28;;;;;;;16.77;79.53;102166.19;3597964;39;20059;-62
2022/07/12 01:30:08;;;;;;;3.90;3.25;;;;;;;16.77;79.81;102177.06;3599290;39;20083;-62
2022/07/12 01:32:34;;;;;;;3.30;2.88;;;;;;;16.76;79.69;102178.03;3599036;39;20110;-62
2022/07/12 01:35:03;;;;;;;4.05;2.92;;;;;;;16.57;78.90;102144.91;3599694;39;20548;-62
2022/07/12 01:37:37;;;;;;;4.65;3.70;;;;;;;16.66;79.32;102172.31;3598434;39;20067;-63
2022/07/12 01:40:12;;;;;;;3.95;3.50;;;;;;;16.62;79.79;102170.78;3600346;39;20079;-63
2022/07/12 01:42:39;;;;;;;3.97;3.53;;;;;;;16.60;80.60;102174.56;3600015;39;20051;-64
2022/07/12 01:45:08;;;;;;;4.60;3.45;;;;;;;16.59;79.57;102175.56;3598642;39;20063;-61
2022/07/12 01:47:35;;;;;;;4.53;3.50;;;;;;;16.56;80.40;102176.63;3597088;39;20399;-62
2022/07/12 01:50:04;;;;;;;5.60;3.33;;;;;;;16.51;80.38;102169.75;3600179;39;20054;-63
2022/07/12 01:52:30;;;;;;;4.75;3.75;;;;;;;16.48;80.40;102171.69;3596884;39;20062;-62
2022/07/12 01:54:57;;;;;;;4.65;3.88;;;;;;;16.30;80.78;102137.63;3597018;39;20059;-62
2022/07/12 01:57:25;;;;;;;4.45;4.05;;;;;;;16.41;81.21;102164.91;3598677;39;20066;-62
2022/07/12 01:59:51;;;;;;;5.00;4.50;;;;;;;16.37;81.12;102163.38;3596939;39;20335;-63
2022/07/12 02:02:17;;;;;;;4.80;4.38;;;;;;;16.10;82.13;102127.16;3598077;39;20376;-63
2022/07/12 02:04:44;;;;;;;4.57;4.07;;;;;;;16.28;81.81;102163.97;3598507;39;20067;-63
2022/07/12 02:07:09;;;;;;;6.05;4.07;;;;;;;16.23;82.35;102163.38;3596948;39;20043;-63
2022/07/12 02:09:35;;;;;;;4.63;4.32;;;;;;;16.20;82.51;102163.59;3596065;39;20737;-62
2022/07/12 02:12:01;;;;;;;7.22;4.28;;;;;;;16.21;82.05;102160.78;3600347;39;20051;-63
2022/07/12 02:14:26;;;;;;;4.97;4.25;;;;;;;16.05;81.99;102140.16;3597784;39;20063;-63
2022/07/12 02:16:52;;;;;;;5.28;4.78;;;;;;;16.24;81.97;102167.88;3597875;39;20302;-62
2022/07/12 02:19:18;;;;;;;5.18;4.68;;;;;;;15.95;81.54;102119.06;3598447;39;20063;-63
2022/07/12 02:21:43;;;;;;;6.57;4.97;;;;;;;16.19;81.49;102164.56;3599476;39;20071;-62
2022/07/12 02:24:09;;;;;;;5.53;4.53;;;;;;;16.10;81.59;102154.28;3598887;39;20058;-62
2022/07/12 02:26:36;;;;;;;6.38;4.47;;;;;;;16.07;82.49;102162.63;3599073;39;20052;-63
2022/07/12 02:29:04;;;;;;;4.85;4.20;;;;;;;15.91;82.35;102133.75;3598696;39;20086;-63
2022/07/12 02:31:31;;;;;;;7.85;4.53;;;;;;;16.01;82.96;102156.63;3597619;39;20427;-63
2022/07/12 02:33:57;;;;;;;6.40;4.65;;;;;;;16.05;82.42;102160.03;3599593;39;20064;-63
2022/07/12 02:36:23;;;;;;;6.90;4.68;;;;;;;16.08;82.06;102167.06;3598267;39;20062;-63
2022/07/12 02:38:49;;;;;;;4.95;4.45;;;;;;;16.07;81.81;102165.34;3596430;39;20063;-63
2022/07/12 02:41:15;;;;;;;5.10;4.43;;;;;;;16.05;81.78;102159.13;3598310;39;20434;-63
2022/07/12 02:43:40;;;;;;;5.85;4.22;;;;;;;15.98;82.18;102156.84;3598557;39;20310;-63
2022/07/12 02:46:10;;;;;;;6.43;4.70;;;;;;;16.00;82.07;102170.28;3598738;39;20067;-60
2022/07/12 02:48:37;;;;;;;4.90;4.40;;;;;;;16.00;81.41;102165.72;3597158;39;20401;-60
2022/07/12 02:51:05;;;;;;;4.65;4.10;;;;;;;16.00;81.03;102171.16;3600073;39;20039;-61
2022/07/12 02:53:31;;;;;;;6.22;4.88;;;;;;;15.97;81.10;102160.50;3599187;39;20458;-63
2022/07/12 02:55:56;;;;;;;6.25;4.85;;;;;;;15.93;81.44;102164.38;3598979;39;20045;-62
2022/07/12 02:58:22;;;;;;;4.68;4.13;;;;;;;15.92;82.15;102167.16;3595404;39;20068;-63
2022/07/12 03:00:48;;;;;;;4.80;4.28;;;;;;;15.91;82.29;102154.59;3600123;39;20111;-63
2022/07/12 03:03:15;;;;;;;5.95;4.65;;;;;;;15.94;82.18;102160.69;3598380;39;20314;-63
2022/07/12 03:05:42;;;;;;;5.40;4.90;;;;;;;15.92;82.06;102157.22;3597971;39;20060;-62
2022/07/12 03:08:09;;;;;;;5.00;4.50;;;;;;;15.86;82.73;102149.47;3597848;39;20070;-62
2022/07/12 03:10:37;;;;;;;5.30;4.47;;;;;;;15.94;81.70;102166.13;3596181;39;20171;-63
2022/07/12 03:13:03;;;;;;;5.72;4.95;;;;;;;15.92;81.99;102162.66;3600113;39;20064;-63
2022/07/12 03:15:30;;;;;;;5.05;4.55;;;;;;;15.79;82.08;102142.66;3598699;39;20068;-63
2022/07/12 03:17:58;;;;;;;5.75;5.25;;;;;;;15.89;82.61;102157.41;3597692;39;20075;-63
2022/07/12 03:20:24;;;;;;;5.97;5.38;;;;;;;15.89;82.92;102167.38;3601180;39;20071;-63
2022/07/12 03:22:51;;;;;;;5.78;5.10;;;;;;;15.81;82.55;102146.16;3601311;39;20132;-63
2022/07/12 03:25:18;;;;;;;5.53;5.00;;;;;;;15.90;82.80;102159.16;3597880;39;20116;-63
2022/07/12 03:27:44;;;;;;;7.03;5.07;;;;;;;15.91;82.69;102165.44;3598339;39;20059;-63
2022/07/12 03:30:11;;;;;;;5.57;4.97;;;;;;;15.90;82.83;102164.56;3598382;39;20063;-62
2022/07/12 03:32:37;;;;;;;5.53;5.03;;;;;;;15.89;82.71;102153.81;3597138;39;20638;-63
2022/07/12 03:35:03;;;;;;;5.25;4.85;;;;;;;15.86;82.80;102149.47;3597473;39;20056;-62
2022/07/12 03:37:47;;;;;;;5.35;4.78;;;;;;;15.89;82.09;102156.50;3597017;39;20098;-62
2022/07/12 03:40:15;;;;;;;8.57;6.20;;;;;;;15.87;82.44;102158.47;3596164;39;20048;-62
2022/07/12 03:42:42;;;;;;;6.47;5.88;;;;;;;15.87;82.76;102167.47;3600489;39;20370;-62
2022/07/12 03:45:10;;;;;;;8.77;6.53;;;;;;;15.83;82.66;102156.94;3596154;39;20112;-61
2022/07/12 03:47:37;;;;;;;5.95;5.40;;;;;;;15.91;82.44;102160.88;3599256;39;20409;-61
2022/07/12 03:50:10;;;;;;;5.75;5.07;;;;;;;15.95;81.15;102154.31;3599695;39;20039;-64
2022/07/12 03:52:36;;;;;;;;;;;;;;;15.97;81.71;102165.91;3600853;39;20048;-61
2022/07/12 03:55:02;;;;;;;7.70;6.90;;;;;;;15.94;82.24;102166.13;3599763;39;20004;-61
2022/07/12 03:57:29;;;;;;;8.30;7.53;;;;;;;15.93;82.52;102167.09;3598223;39;20056;-61
2022/07/12 03:59:55;;;;;;;8.32;7.63;;;;;;;15.91;82.98;102174.44;3600217;39;20055;-61
2022/07/12 04:02:21;;;;;;;7.30;6.70;;;;;;;15.88;81.94;102174.63;3598203;39;20048;-61
2022/07/12 04:04:47;;;;;;;7.53;6.82;;;;;;;15.91;82.61;102166.31;3598440;39;20351;-61
2022/07/12 04:07:13;;;;;;;7.10;6.40;;;;;;;15.94;82.57;102165.25;3600354;39;20279;-61
2022/07/12 04:09:39;;;;;;;8.32;7.63;;;;;;;15.93;82.38;102149.97;3599813;39;20056;-61
2022/07/12 04:12:05;;;;;;;8.82;8.02;;;;;;;15.96;82.79;102153.34;3600292;39;20091;-61
2022/07/12 04:14:31;;;;;;;9.20;8.30;;;;;;;15.31;83.19;102047.16;3600820;39;20127;-61
2022/07/12 04:16:57;;;;;;;10.27;8.50;;;;;;;15.94;83.97;102146.25;3600598;39;20059;-61
2022/07/12 04:19:27;;;;;;;9.98;8.15;;;;;;;16.01;84.14;102156.63;3598588;39;20405;-61
2022/07/12 04:21:55;;;;;;;12.40;7.97;;;;;;;15.99;83.42;102158.56;3603608;39;20055;-61
2022/07/12 04:24:21;;;;;;;8.40;7.60;;;;;;;16.04;82.64;102168.25;3599400;39;20051;-61
2022/07/12 04:26:48;;;;;;;9.65;7.72;;;;;;;16.04;82.57;102169.13;3595957;39;20354;-61
2022/07/12 04:29:14;;;;;;;7.72;6.97;;;;;;;16.10;82.80;102166.00;3597186;39;20066;-61
2022/07/12 04:31:39;;;;;;;8.10;7.25;;;;;;;16.07;81.75;102154.50;3597726;39;20366;-61
2022/07/12 04:34:05;;;;;;;7.60;6.78;;;;;;;16.17;82.27;102169.19;3601142;39;20054;-61
2022/07/12 04:36:31;;;;;;;8.10;7.40;;;;;;;16.19;81.88;102168.13;3598780;39;20378;-61
2022/07/12 04:38:56;;;;;;;7.55;6.78;;;;;;;16.23;82.21;102176.94;3597738;39;20052;-61
2022/07/12 04:41:22;;;;;;;8.23;7.35;;;;;;;16.24;81.71;102189.56;3600713;39;20482;-61
2022/07/12 04:43:47;;;;;;;8.05;7.32;;;;;;;16.29;81.87;102176.56;3598467;39;20076;-61
2022/07/12 04:46:13;;;;;;;7.55;6.85;;;;;;;16.34;81.70;102176.28;3596110;39;20395;-61
2022/07/12 04:48:38;;;;;;;7.57;6.97;;;;;;;16.40;81.03;102170.47;3596341;39;20071;-61
2022/07/12 04:51:04;;;;;;;7.57;6.88;;;;;;;16.24;80.72;102141.59;3598197;39;20052;-61
2022/07/12 04:53:30;;;;;;;6.97;6.40;;;;;;;16.51;80.33;102177.88;3597980;39;20070;-61
2022/07/12 04:55:56;;;;;;;8.35;7.65;;;;;;;16.55;80.84;102187.56;3599384;39;20289;-61
2022/07/12 04:58:23;;;;;;;8.13;7.43;;;;;;;16.45;80.43;102162.88;3598328;39;20115;-60
2022/07/12 05:00:52;;;;;;;7.57;6.85;;;;;;;16.60;80.37;102180.00;3598640;39;20067;-61
2022/07/12 05:03:17;;;;;;;8.20;7.43;;;;;;;16.62;79.96;102178.06;3599322;39;20059;-61
2022/07/12 05:05:43;;;;;;;8.70;7.82;;;;;;;16.44;80.03;102139.41;3602340;39;20067;-61
2022/07/12 05:08:09;;;;;;;9.05;8.15;;;;;;;16.72;80.22;102179.19;3601142;39;20070;-61
2022/07/12 05:10:35;;;;;;;10.98;9.25;;;;;;;16.80;80.51;102182.28;3596294;39;20051;-62
2022/07/12 05:13:01;;;;;;;8.93;8.13;;;;;;;16.84;80.50;102188.38;3603022;39;20074;-61
2022/07/12 05:15:27;;;;;;;12.00;10.05;;;;;;;16.97;81.11;102193.88;3601142;39;20416;-61
2022/07/12 05:17:53;;;;;;;10.57;9.40;;;;;;;17.04;81.03;102192.50;3602969;39;20064;-60
2022/07/12 05:20:19;;;;;;;10.60;9.52;;;;;;;17.11;80.73;102201.97;3600683;39;20097;-61
2022/07/12 05:22:45;;;;;;;10.88;9.90;;;;;;;17.19;80.40;102205.06;3599791;39;20059;-61
2022/07/12 05:25:11;;;;;;;11.18;10.05;;;;;;;17.24;79.59;102202.88;3600641;39;20121;-61
2022/07/12 05:27:37;;;;;;;11.90;10.70;;;;;;;17.32;79.85;102205.97;3594106;39;20059;-61
2022/07/12 05:30:04;;;;;;;13.00;11.80;;;;;;;17.39;79.29;102206.41;3602963;39;20115;-61
2022/07/12 05:32:30;;;;;;;12.80;11.35;;;;;;;17.44;79.59;102214.25;3601468;39;20083;-61
2022/07/12 05:34:56;;;;;;;14.98;11.68;;;;;;;17.55;78.90;102227.97;3597716;39;20111;-61
2022/07/12 05:37:24;;;;;;;14.32;12.95;;;;;;;17.64;79.12;102222.78;3599845;39;20164;-61
2022/07/12 05:39:51;;;;;;;13.85;12.55;;;;;;;17.72;78.89;102227.66;3598525;39;20124;-61
2022/07/12 05:42:16;;;;;;;13.57;12.27;;;;;;;17.82;78.27;102231.53;3588241;39;20051;-61
2022/07/12 05:44:42;;;;;;;13.50;12.20;;;;;;;17.88;78.00;102234.78;3599156;39;20059;-61
2022/07/12 05:47:07;;;;;;;13.82;12.43;;;;;;;18.01;78.17;102241.09;3599445;39;20058;-61
2022/07/12 05:49:33;;;;;;;13.27;11.77;;;;;;;18.10;77.02;102245.91;3597812;39;20054;-62
2022/07/12 05:54:42;;;;;;;13.70;11.90;;;;;;;18.30;77.30;102253.53;3601080;39;20667;-62
2022/07/12 05:57:08;;;;;;;12.60;10.73;;;;;;;18.40;76.58;102252.88;3601026;39;20075;-61
2022/07/12 05:59:37;;;;;;;12.95;11.45;;;;;;;18.52;76.39;102257.41;3598023;39;20923;-61
2022/07/12 06:02:04;;;;;;;13.13;11.07;;;;;;;18.63;75.72;102253.91;3601861;39;20055;-61
2022/07/12 06:04:30;;;;;;;12.20;11.00;;;;;;;18.76;75.08;102255.66;3601993;39;20046;-61
2022/07/12 06:06:56;;;;;;;12.88;11.68;;;;;;;18.90;74.95;102251.03;3597566;39;20056;-61
2022/07/12 06:09:22;;;;;;;13.45;12.25;;;;;;;19.00;73.74;102252.09;3600522;39;20124;-62
2022/07/12 06:11:47;;;;;;;13.48;11.68;;;;;;;19.10;73.91;102263.19;3597579;39;20063;-63
2022/07/12 06:14:13;;;;;;;13.00;11.65;;;;;;;19.15;74.31;102255.50;3597722;39;20060;-62
2022/07/12 06:16:38;;;;;;;13.95;12.50;;;;;;;19.23;73.20;102253.94;3597237;39;20071;-63
2022/07/12 06:19:04;;;;;;;13.65;12.27;;;;;;;19.32;73.62;102254.25;3597656;39;20047;-62
2022/07/12 06:21:29;;;;;;;13.27;11.25;;;;;;;19.48;72.98;102263.00;3598994;39;20378;-63
2022/07/12 06:23:55;;;;;;;12.15;10.90;;;;;;;19.61;71.97;102255.59;3597013;39;20060;-63
2022/07/12 06:26:21;;;;;;;10.85;9.88;;;;;;;19.78;71.88;102257.03;3597347;39;20051;-63
2022/07/12 06:28:46;;;;;;;12.50;10.15;;;;;;;19.96;69.97;102262.94;3597571;39;20071;-63
2022/07/12 06:31:12;;;;;;;11.32;10.23;;;;;;;20.14;69.45;102261.47;3598388;39;20059;-63
2022/07/12 06:33:37;;;;;;;11.73;10.63;;;;;;;20.33;69.28;102259.97;3597401;39;20508;-63
2022/07/12 06:36:04;;;;;;;12.15;10.98;;;;;;;20.35;68.21;102263.47;3597080;39;20050;-64
2022/07/12 06:38:29;;;;;;;10.88;9.75;;;;;;;20.44;68.28;102257.25;3597093;39;20055;-63
2022/07/12 06:40:55;;;;;;;11.98;10.43;;;;;;;20.53;68.93;102258.41;3596302;39;20096;-63
2022/07/12 06:43:20;;;;;;;11.45;10.32;;;;;;;20.72;68.67;102265.97;3597683;39;20297;-63
2022/07/12 06:45:46;;;;;;;11.80;10.60;;;;;;;20.87;67.36;102259.25;3597816;39;20139;-63
2022/07/12 06:48:12;;;;;;;13.48;9.75;;;;;;;21.10;67.19;102265.53;3599936;39;20377;-63
2022/07/12 06:50:37;;;;;;;12.25;10.57;;;;;;;21.26;67.46;102265.97;3595736;39;20051;-63
2022/07/12 06:53:03;;;;;;;13.10;9.80;;;;;;;21.44;66.25;102268.16;3598254;39;20110;-63
2022/07/12 06:55:30;;;;;;;12.75;10.57;;;;;;;21.60;64.90;102267.72;3598283;39;20082;-63
2022/07/12 06:57:55;;;;;;;11.40;10.07;;;;;;;21.73;63.67;102273.91;3599078;39;20055;-63
2022/07/12 07:00:21;;;;;;;10.13;8.65;;;;;;;21.79;63.95;102273.38;3597266;39;20067;-63
2022/07/12 07:02:47;;;;;;;14.93;13.43;;;;;;;21.86;63.29;102269.09;3598362;39;20063;-63
2022/07/12 07:05:15;;;;;;;11.18;9.40;;;;;;;22.00;63.18;102270.63;3598817;39;20092;-63
2022/07/12 07:07:41;;;;;;;14.20;9.23;;;;;;;22.14;63.71;102266.69;3596977;39;20078;-63
2022/07/12 07:10:07;;;;;;;12.25;9.38;;;;;;;22.18;63.61;102268.19;3595785;39;20434;-63
2022/07/12 07:12:33;;;;;;;11.05;8.50;;;;;;;22.27;62.83;102272.84;3595795;39;20060;-63
2022/07/12 07:14:59;;;;;;;9.73;8.35;;;;;;;22.37;62.25;102272.91;3596364;39;20066;-63
2022/07/12 07:17:24;;;;;;;11.27;7.50;;;;;;;22.52;61.05;102270.63;3598782;39;20071;-63
2022/07/12 07:19:50;;;;;;;10.57;7.22;;;;;;;22.55;61.08;102259.41;3588587;39;20067;-63
2022/07/12 07:22:15;;;;;;;7.05;6.45;;;;;;;22.86;59.89;102269.31;3596130;39;20119;-63
2022/07/12 07:24:41;;;;;;;6.88;6.28;;;;;;;23.07;59.24;102262.94;3595340;39;20055;-64
2022/07/12 07:27:08;;;;;;;8.07;5.32;;;;;;;23.19;58.73;102269.16;3595874;39;20370;-64
2022/07/12 07:32:18;;;;;;;6.63;5.97;;;;;;;23.49;57.07;102268.16;3596310;39;20042;-64
2022/07/12 07:34:45;;;;;;;7.43;5.78;;;;;;;23.59;56.23;102269.03;3595273;39;20078;-64
2022/07/12 07:37:11;;;;;;;4.72;3.92;;;;;;;23.72;55.08;102271.50;3594968;39;20055;-65
2022/07/12 07:39:36;;;;;;;4.55;4.15;;;;;;;23.80;55.36;102269.78;3597329;39;20047;-64
2022/07/12 07:42:03;;;;;;;4.22;3.83;;;;;;;23.85;55.53;102264.72;3597348;39;20319;-63
2022/07/12 07:44:29;;;;;;;5.10;4.05;;;;;;;23.82;55.63;102262.25;3598106;39;20067;-63
2022/07/12 07:46:54;;;;;;;4.00;3.70;;;;;;;23.86;55.39;102260.94;3596799;39;20120;-64
2022/07/12 07:49:20;;;;;;;4.55;3.60;;;;;;;23.94;54.35;102260.19;3598789;39;20060;-63
2022/07/12 07:51:45;;;;;;;3.63;3.25;;;;;;;23.96;53.67;102251.81;3600498;39;20063;-64
2022/07/12 07:54:11;;;;;;;4.35;3.20;;;;;;;23.84;55.74;102223.66;3596634;39;20070;-64
2022/07/12 07:56:36;;;;;;;3.08;2.80;;;;;;;24.07;54.56;102259.88;3597184;39;20049;-63
2022/07/12 07:59:02;;;;;;;6.88;3.03;;;;;;;24.02;53.36;102256.72;3596077;39;20060;-63
2022/07/12 08:01:44;;;;;;;2.88;2.55;;;;;;;24.13;53.07;102253.78;3598728;39;20123;-64
2022/07/12 08:04:12;;;;;;;3.05;2.85;;;;;;;24.15;53.14;102257.25;3597383;39;20055;-63
2022/07/12 08:06:39;;;;;;;7.50;3.08;;;;;;;24.13;52.28;102262.03;3597233;39;20059;-63
2022/07/12 08:09:06;;;;;;;5.18;3.83;;;;;;;24.14;52.08;102263.78;3595115;39;20062;-64
2022/07/12 08:11:33;;;;;;;4.63;3.58;;;;;;;24.04;53.19;102268.41;3596416;39;20084;-64
2022/07/12 08:13:59;;;;;;;3.83;3.40;;;;;;;24.09;53.63;102258.72;3593805;39;20068;-64
2022/07/12 08:16:25;;;;;;;4.20;3.70;;;;;;;23.95;53.72;102233.63;3595750;39;20063;-63
2022/07/12 08:18:52;;;;;;;8.48;7.65;;;;;;;24.10;54.17;102254.09;3595052;39;20295;-63
2022/07/12 08:21:18;;;;;;;4.03;3.60;;;;;;;24.19;52.93;102255.09;3594489;39;20083;-63
2022/07/12 08:23:43;;;;;;;3.70;3.40;;;;;;;24.34;53.46;102261.84;3596876;39;20062;-63
2022/07/12 08:26:09;;;;;;;4.10;3.65;;;;;;;24.38;52.60;102256.91;3596574;39;20074;-64
2022/07/12 08:28:35;;;;;;;4.18;3.78;;;;;;;24.41;51.60;102263.00;3595579;39;20085;-64
2022/07/12 08:31:00;;;;;;;3.72;3.25;;;;;;;24.48;52.64;102260.50;3593664;39;20070;-64
2022/07/12 08:33:26;;;;;;;3.67;3.40;;;;;;;24.65;50.40;102270.72;3594303;39;20063;-65
2022/07/12 08:35:52;;;;;;;4.13;3.75;;;;;;;24.76;50.51;102267.75;3595452;39;20052;-64
2022/07/12 08:38:17;;;;;;;4.10;3.47;;;;;;;24.73;50.12;102251.56;3595645;39;20091;-64
2022/07/12 08:40:43;;;;;;;3.92;3.63;;;;;;;24.63;50.97;102263.63;3597031;39;20056;-64
2022/07/12 08:43:09;;;;;;;4.78;3.88;;;;;;;24.64;50.79;102274.47;3595934;39;20082;-64
2022/07/12 08:45:35;;;;;;;3.65;3.35;;;;;;;24.69;51.36;102277.63;3597298;39;20143;-64
2022/07/12 08:48:01;;;;;;;3.70;3.40;;;;;;;24.72;51.14;102277.34;3595389;39;20410;-64
2022/07/12 08:50:27;;;;;;;4.15;3.75;;;;;;;24.74;51.19;102278.06;3598324;39;20059;-65
2022/07/12 08:52:55;;;;;;;4.57;3.75;;;;;;;24.69;50.69;102277.63;3595730;39;20093;-65
2022/07/12 08:55:24;;;;;;;5.68;5.18;;;;;;;24.70;51.52;102273.00;3596961;39;20075;-65
2022/07/12 08:57:53;;;;;;;7.57;6.65;;;;;;;24.92;48.66;102288.22;3597555;39;20122;-65
2022/07/12 09:00:20;;;;;;;3.95;3.60;;;;;;;25.13;50.81;102283.34;3595571;39;20044;-65
2022/07/12 09:02:50;;;;;;;6.05;4.85;;;;;;;25.52;49.19;102291.31;3598005;39;20740;-64
2022/07/12 09:05:28;;;;;;;4.72;3.95;;;;;;;25.81;47.89;102284.72;3598482;39;20425;-63
2022/07/12 09:08:08;;;;;;;3.40;3.20;;;;;;;26.15;47.82;102285.69;3598874;39;20093;-64
2022/07/12 09:11:00;;;;;;;5.20;3.65;;;;;;;26.50;47.91;102291.28;3597761;39;20047;-65
2022/07/12 09:14:03;;;;;;;3.67;3.40;;;;;;;26.81;43.95;102284.19;3595449;39;20169;-65
2022/07/12 09:16:29;;;;;;;6.95;5.25;;;;;;;26.99;44.88;102292.38;3598613;39;20055;-65
2022/07/12 09:19:17;;;;;;;8.82;7.70;;;;;;;27.13;45.24;102273.41;3596784;39;20058;-65
2022/07/12 09:21:52;;;;;;;6.32;3.67;;;;;;;27.17;44.12;102280.34;3596009;39;20081;-64
2022/07/12 09:24:23;;;;;;;4.07;3.70;;;;;;;27.24;46.03;102276.75;3597823;39;20398;-65
2022/07/12 09:26:53;;;;;;;4.18;3.78;;;;;;;27.51;43.40;102275.59;3598247;39;20100;-64
2022/07/12 09:29:20;;;;;;;5.53;5.03;;;;;;;27.73;44.74;102273.19;3595968;39;20355;-66
2022/07/12 09:37:22;;;;;;;4.32;3.50;;;;;;;28.17;40.71;102262.63;3597075;39;20058;-65
2022/07/12 09:39:51;;;;;;;4.57;3.97;;;;;;;27.98;43.05;102233.47;3597738;39;20154;-65
2022/07/12 09:42:18;;;;;;;3.13;2.92;;;;;;;28.15;42.22;102266.59;3599773;39;20124;-65
2022/07/12 09:44:45;;;;;;;2.72;2.53;;;;;;;28.19;43.30;102265.19;3598011;39;20622;-65
2022/07/12 09:47:15;;;;;;;3.50;2.95;;;;;;;28.04;42.19;102273.38;3598077;39;20121;-65
2022/07/12 09:49:43;;;;;;;3.50;3.20;;;;;;;27.95;42.81;102278.03;3598564;39;20063;-65
2022/07/12 09:52:22;;;;;;;3.60;3.30;;;;;;;27.88;42.88;102263.19;3597180;39;20058;-65
2022/07/12 09:54:52;;;;;;;3.10;2.80;;;;;;;28.03;41.46;102265.25;3597647;39;20063;-65
2022/07/12 09:57:31;;;;;;;2.95;2.40;;;;;;;28.34;43.23;102265.34;3599897;39;20057;-65
2022/07/12 10:00:00;;;;;;;2.78;2.58;;;;;;;28.41;42.28;102249.78;3599975;39;20128;-65
2022/07/12 10:02:27;;;;;;;3.30;3.00;;;;;;;28.53;42.86;102261.34;3597737;39;20056;-65
2022/07/12 10:04:54;;;;;;;2.65;2.33;;;;;;;28.57;43.11;102257.16;3601963;39;20128;-65
2022/07/12 10:07:21;;;;;;;3.25;2.83;;;;;;;28.65;42.80;102251.63;3601523;39;20314;-65
2022/07/12 10:09:51;;;;;;;2.88;2.40;;;;;;;28.98;40.83;102254.22;3597359;39;20062;-65
2022/07/12 10:12:21;;;;;;;2.88;2.67;;;;;;;28.98;40.79;102255.06;3600834;39;20086;-65
2022/07/12 10:14:55;;;;;;;2.80;2.60;;;;;;;29.07;39.74;102251.25;3600561;39;20051;-66
2022/07/12 10:17:24;;;;;;;3.67;2.40;;;;;;;29.02;40.52;102242.66;3600541;39;20055;-65
2022/07/12 10:20:18;;;;;;;4.85;2.50;;;;;;;29.32;42.46;102240.88;3600822;39;20051;-65
2022/07/12 10:22:45;;;;;;;2.90;2.60;;;;;;;29.49;40.06;102243.50;3601145;39;20090;-65
2022/07/12 10:25:26;;;;;;;3.45;3.15;;;;;;;29.57;39.30;102243.47;3600848;39;20108;-65
2022/07/12 10:27:52;;;;;;;4.60;4.20;;;;;;;29.50;40.18;102245.25;3599973;39;20055;-65
2022/07/12 10:30:21;;;;;;;5.20;3.53;;;;;;;29.50;39.68;102234.16;3599925;39;20043;-65
2022/07/12 10:32:52;;;;;;;6.03;3.72;;;;;;;29.57;40.86;102229.59;3599647;39;21383;-65
2022/07/12 10:35:35;;;;;;;5.22;3.00;;;;;;;29.66;39.78;102239.59;3599669;39;20360;-65
2022/07/12 10:38:18;;;;;;;3.85;2.97;;;;;;;29.72;39.36;102237.97;3599577;39;20051;-64
2022/07/12 10:40:49;;;;;;;;;;;;;;;29.73;39.42;102236.94;3599837;39;20063;-64
2022/07/12 10:43:18;;;;;;;4.75;3.40;;;;;;;29.92;38.47;102241.09;3598897;39;20024;-66
2022/07/12 10:45:49;;;;;;;3.25;2.65;;;;;;;30.00;39.72;102249.31;3597356;39;20380;-64
2022/07/12 10:48:17;;;;;;;4.35;3.30;;;;;;;30.00;37.52;102241.88;3599380;39;20055;-64
2022/07/12 10:50:45;;;;;;;3.65;3.25;;;;;;;29.94;38.01;102244.53;3600179;39;20344;-64
2022/07/12 10:53:29;;;;;;;3.28;2.85;;;;;;;29.93;39.50;102240.03;3599470;39;20602;-64
2022/07/12 10:56:06;;;;;;;3.65;2.90;;;;;;;29.90;37.66;102230.19;3587870;39;20116;-65
2022/07/12 10:58:41;;;;;;;3.30;2.40;;;;;;;30.03;37.23;102232.28;3600201;39;20047;-65
2022/07/12 11:01:29;;;;;;;2.50;2.20;;;;;;;30.23;35.92;102240.97;3598318;39;20066;-65
2022/07/12 11:04:10;;;;;;;3.25;2.47;;;;;;;30.25;36.57;102244.41;3600633;39;20414;-65
2022/07/12 11:06:39;;;;;;;2.53;2.33;;;;;;;30.28;36.33;102242.09;3598555;39;20079;-65
2022/07/12 11:09:17;;;;;;;3.30;2.65;;;;;;;30.55;36.87;102239.72;3599474;39;20059;-65
2022/07/12 11:11:49;;;;;;;5.97;2.20;;;;;;;30.53;35.67;102236.25;3599370;39;20063;-65
2022/07/12 11:14:25;;;;;;;2.97;2.70;;;;;;;30.67;35.84;102246.50;3600738;39;20059;-65
2022/07/12 11:16:54;;;;;;;2.40;2.20;;;;;;;30.83;35.81;102247.34;3594689;39;20063;-64
2022/07/12 11:19:25;;;;;;;5.95;2.28;;;;;;;30.98;33.92;102229.59;3598837;39;20051;-65
2022/07/12 11:21:56;;;;;;;3.53;2.70;;;;;;;30.94;35.94;102233.84;3599211;39;20062;-64
2022/07/12 11:24:25;;;;;;;3.72;2.80;;;;;;;31.08;34.08;102229.31;3597625;39;20058;-64
2022/07/12 11:26:54;;;;;;;6.60;2.58;;;;;;;31.17;34.39;102210.56;3599105;39;20152;-64
2022/07/12 11:29:21;;;;;;;4.03;2.95;;;;;;;31.52;34.55;102231.03;3596494;39;20051;-64
2022/07/12 11:31:47;;;;;;;3.50;3.20;;;;;;;31.53;38.32;102218.88;3597590;39;20401;-64
2022/07/12 11:34:26;;;;;;;3.20;2.78;;;;;;;31.70;35.42;102221.38;3597084;39;20066;-64
2022/07/12 11:36:55;;;;;;;2.97;2.13;;;;;;;31.83;35.52;102227.03;3599516;39;20048;-64
2022/07/12 11:39:40;;;;;;;4.53;3.00;;;;;;;31.69;34.37;102214.97;3598428;39;20059;-64